Time;durP1;ratioP1;P1;durP2;ratioP2;P2;SDS_P1;SDS_P2;PMS_P1;PMS_P2;Temp;Humidity;BMP_temperature;BMP_pressure;BME280_temperature;BME280_humidity;BME280_pressure;Samples;Min_cycle;Max_cycle;Signal;HPM_P1;HPM_P2
2022/05/30 00:00:51;;;;;;;4.20;3.90;;;7.80;99.90;;;;;;6054261;23;20196;-76
2022/05/30 00:03:19;;;;;;;4.30;3.53;;;7.70;99.90;;;;;;6049115;23;20216;-76
2022/05/30 00:05:47;;;;;;;4.03;3.72;;;7.60;99.90;;;;;;6052371;23;20275;-76
2022/05/30 00:08:16;;;;;;;4.20;3.90;;;7.60;99.90;;;;;;6054106;23;20227;-75
2022/05/30 00:10:43;;;;;;;4.47;3.72;;;7.60;99.90;;;;;;6050669;23;20195;-76
2022/05/30 00:13:13;;;;;;;5.10;4.35;;;7.60;99.90;;;;;;6050192;23;20225;-75
2022/05/30 00:15:40;;;;;;;5.22;4.57;;;7.50;99.90;;;;;;6049912;23;20263;-75
2022/05/30 00:18:09;;;;;;;4.85;4.45;;;7.40;99.90;;;;;;6042665;23;20236;-75
2022/05/30 00:20:36;;;;;;;4.85;4.25;;;7.40;99.90;;;;;;6052184;23;20204;-76
2022/05/30 00:23:04;;;;;;;5.35;4.70;;;7.40;99.90;;;;;;6041435;23;20221;-75
2022/05/30 00:25:30;;;;;;;5.30;4.90;;;7.30;99.90;;;;;;6050570;23;20764;-76
2022/05/30 00:27:57;;;;;;;4.60;4.30;;;7.30;99.90;;;;;;6048900;23;20210;-76
2022/05/30 00:30:26;;;;;;;5.10;4.60;;;7.40;99.90;;;;;;6053756;23;20292;-76
2022/05/30 00:32:53;;;;;;;6.00;4.70;;;7.30;99.90;;;;;;6045226;23;20659;-75
2022/05/30 00:35:20;;;;;;;5.43;4.93;;;7.20;99.90;;;;;;6044485;23;20197;-76
2022/05/30 00:37:47;;;;;;;5.70;5.20;;;7.20;99.90;;;;;;6051697;23;20216;-75
2022/05/30 00:40:14;;;;;;;5.50;5.10;;;7.20;99.90;;;;;;6056230;23;20263;-76
2022/05/30 00:42:41;;;;;;;5.70;5.20;;;7.20;99.90;;;;;;6059247;23;20192;-76
2022/05/30 00:45:09;;;;;;;5.75;5.25;;;7.20;99.90;;;;;;6056444;23;20188;-76
2022/05/30 00:47:38;;;;;;;5.53;5.07;;;7.20;99.90;;;;;;6059404;23;20284;-75
2022/05/30 00:50:07;;;;;;;6.53;6.03;;;7.10;99.90;;;;;;6054397;23;20193;-76
2022/05/30 00:52:37;;;;;;;5.97;5.47;;;7.00;99.90;;;;;;6052587;23;20688;-75
2022/05/30 00:55:08;;;;;;;6.85;6.05;;;7.00;99.90;;;;;;6049089;23;20267;-75
2022/05/30 00:57:38;;;;;;;5.38;4.88;;;6.90;99.90;;;;;;6053180;23;20267;-76
2022/05/30 01:00:11;;;;;;;5.35;4.85;;;6.90;99.90;;;;;;6048733;23;20232;-76
2022/05/30 01:02:41;;;;;;;5.45;4.90;;;6.80;99.90;;;;;;6056005;23;20258;-75
2022/05/30 01:07:56;;;;;;;4.88;4.47;;;6.80;99.90;;;;;;6042479;23;20636;-75
2022/05/30 01:10:23;;;;;;;5.70;5.30;;;6.80;99.90;;;;;;6044691;23;20200;-75
2022/05/30 01:12:52;;;;;;;7.22;6.40;;;6.80;99.90;;;;;;6038782;23;20328;-75
2022/05/30 01:15:21;;;;;;;6.50;5.90;;;6.70;99.90;;;;;;6048858;23;20278;-75
2022/05/30 01:17:55;;;;;;;5.78;5.38;;;6.60;99.90;;;;;;6048664;23;20223;-75
2022/05/30 01:20:41;;;;;;;6.57;5.97;;;6.60;99.90;;;;;;6041450;23;20318;-75
2022/05/30 01:23:36;;;;;;;7.00;6.30;;;6.60;99.90;;;;;;6055320;23;20636;-76
2022/05/30 01:26:21;;;;;;;6.45;5.85;;;6.60;99.90;;;;;;6016622;23;20192;-76
2022/05/30 01:28:55;;;;;;;5.95;5.55;;;6.60;99.90;;;;;;6050368;23;20701;-76
2022/05/30 01:31:23;;;;;;;6.63;6.13;;;6.60;99.90;;;;;;6046783;23;20248;-75
2022/05/30 01:33:50;;;;;;;6.70;6.10;;;6.70;99.90;;;;;;6048692;23;20901;-75
2022/05/30 01:36:21;;;;;;;6.63;6.10;;;6.80;99.90;;;;;;6054634;23;20612;-75
2022/05/30 01:38:48;;;;;;;6.53;5.93;;;6.90;99.90;;;;;;6048535;23;20300;-75
2022/05/30 01:41:17;;;;;;;7.13;6.10;;;6.90;99.90;;;;;;6041974;23;20260;-74
2022/05/30 01:43:45;;;;;;;6.30;5.80;;;7.00;99.90;;;;;;6047872;23;20225;-75
2022/05/30 01:46:16;;;;;;;6.70;6.20;;;7.10;99.90;;;;;;6049042;23;20208;-75
2022/05/30 01:48:45;;;;;;;5.70;5.30;;;7.10;99.90;;;;;;6053804;23;20204;-75
2022/05/30 01:51:13;;;;;;;5.82;5.43;;;7.20;99.90;;;;;;6057682;23;20186;-75
2022/05/30 01:53:40;;;;;;;6.38;5.88;;;7.30;99.90;;;;;;6046821;23;20223;-75
2022/05/30 01:56:07;;;;;;;6.00;5.50;;;7.30;99.90;;;;;;6055799;23;20711;-75
2022/05/30 01:58:35;;;;;;;6.55;6.15;;;7.40;99.90;;;;;;6053389;23;20216;-75
2022/05/30 02:01:04;;;;;;;6.53;5.93;;;7.40;99.90;;;;;;6053330;23;20189;-75
2022/05/30 02:03:33;;;;;;;6.80;6.30;;;7.50;99.90;;;;;;6047517;23;20207;-75
2022/05/30 02:06:01;;;;;;;6.80;6.20;;;7.50;99.90;;;;;;6056863;23;20200;-75
2022/05/30 02:08:28;;;;;;;6.60;6.03;;;7.60;99.90;;;;;;6053113;23;20208;-75
2022/05/30 02:10:58;;;;;;;6.45;5.85;;;7.60;99.90;;;;;;6048953;23;20252;-75
2022/05/30 02:13:25;;;;;;;6.05;5.55;;;7.60;99.90;;;;;;6049403;23;20221;-75
2022/05/30 02:18:38;;;;;;;6.32;5.80;;;7.70;99.90;;;;;;6049617;23;20213;-76
2022/05/30 02:21:06;;;;;;;7.15;6.55;;;7.70;99.90;;;;;;6039331;23;20220;-76
2022/05/30 02:23:32;;;;;;;5.78;5.28;;;7.70;99.90;;;;;;6046465;23;20283;-75
2022/05/30 02:25:59;;;;;;;5.28;4.88;;;7.70;99.90;;;;;;6049980;23;20293;-76
2022/05/30 02:28:27;;;;;;;5.80;5.30;;;7.60;99.90;;;;;;6052642;23;20213;-76
2022/05/30 02:30:54;;;;;;;5.80;5.30;;;7.60;99.90;;;;;;6039903;23;20609;-76
2022/05/30 02:38:51;;;;;;;5.80;5.30;;;7.50;99.90;;;;;;6052132;23;20688;-76
2022/05/30 02:41:19;;;;;;;6.30;5.80;;;7.40;99.90;;;;;;6051229;23;20193;-76
2022/05/30 02:43:46;;;;;;;6.75;6.20;;;7.40;99.90;;;;;;6055353;23;20192;-76
2022/05/30 02:46:13;;;;;;;6.22;5.75;;;7.30;99.90;;;;;;6054585;23;20291;-76
2022/05/30 02:48:40;;;;;;;6.65;6.15;;;7.30;99.90;;;;;;6052841;23;20294;-76
2022/05/30 02:51:09;;;;;;;5.88;5.47;;;7.20;99.90;;;;;;6056666;23;20196;-76
2022/05/30 02:53:37;;;;;;;6.60;6.10;;;7.20;99.90;;;;;;6057291;23;20220;-76
2022/05/30 02:56:04;;;;;;;7.07;6.43;;;7.10;99.90;;;;;;6055870;23;20235;-76
2022/05/30 02:58:32;;;;;;;9.48;7.22;;;7.00;99.90;;;;;;6051978;23;20218;-76
2022/05/30 03:00:59;;;;;;;7.32;6.72;;;6.90;99.90;;;;;;6043937;23;20201;-76
2022/05/30 03:03:26;;;;;;;8.00;7.28;;;6.90;99.90;;;;;;6053371;23;20277;-76
2022/05/30 03:05:54;;;;;;;6.97;6.30;;;6.80;99.90;;;;;;6057114;23;20231;-76
2022/05/30 03:08:22;;;;;;;6.68;6.18;;;6.90;99.90;;;;;;6051101;23;20215;-76
2022/05/30 03:10:50;;;;;;;7.40;6.80;;;6.70;99.90;;;;;;6047154;23;20212;-76
2022/05/30 03:13:17;;;;;;;7.57;7.05;;;6.60;99.90;;;;;;6046497;23;20303;-76
2022/05/30 03:15:44;;;;;;;7.40;6.80;;;6.60;99.90;;;;;;6041988;23;20275;-75
2022/05/30 03:18:11;;;;;;;9.10;7.70;;;6.50;99.90;;;;;;6043128;23;20227;-75
2022/05/30 03:20:38;;;;;;;7.82;7.32;;;6.40;99.90;;;;;;6044382;23;20715;-76
2022/05/30 03:23:06;;;;;;;9.15;8.35;;;6.30;99.90;;;;;;6044004;23;20199;-75
2022/05/30 03:25:35;;;;;;;8.73;8.00;;;6.30;99.90;;;;;;6046252;23;20288;-76
2022/05/30 03:28:03;;;;;;;8.48;7.68;;;6.10;99.90;;;;;;6048327;23;20695;-75
2022/05/30 03:30:30;;;;;;;8.57;7.80;;;6.00;99.90;;;;;;6040048;23;20272;-75
2022/05/30 03:32:56;;;;;;;8.13;7.43;;;5.90;99.90;;;;;;6048718;23;20200;-75
2022/05/30 03:35:23;;;;;;;9.00;8.15;;;5.80;99.90;;;;;;6052563;23;20193;-75
2022/05/30 03:37:51;;;;;;;9.70;8.90;;;5.80;99.90;;;;;;6046104;23;20220;-75
2022/05/30 03:40:18;;;;;;;10.50;9.48;;;5.70;99.90;;;;;;6049459;23;20284;-75
2022/05/30 03:42:46;;;;;;;9.38;8.57;;;5.60;99.90;;;;;;6052178;23;20196;-74
2022/05/30 03:45:14;;;;;;;8.25;7.55;;;5.60;99.90;;;;;;6054994;23;20233;-74
2022/05/30 03:47:43;;;;;;;8.68;8.02;;;5.60;99.90;;;;;;6055080;23;20236;-74
2022/05/30 03:50:13;;;;;;;9.20;8.50;;;5.60;99.90;;;;;;6047926;23;20223;-74
2022/05/30 03:52:40;;;;;;;9.48;8.77;;;5.70;99.90;;;;;;6050530;23;20197;-75
2022/05/30 03:55:11;;;;;;;9.73;8.82;;;5.70;99.90;;;;;;6046181;23;20244;-74
2022/05/30 03:57:39;;;;;;;9.85;9.05;;;5.70;99.90;;;;;;6052502;23;20567;-76
2022/05/30 04:00:10;;;;;;;9.80;9.00;;;5.70;99.90;;;;;;6050051;23;20200;-75
2022/05/30 04:02:36;;;;;;;9.25;7.90;;;5.80;99.90;;;;;;6050062;23;20195;-75
2022/05/30 04:05:04;;;;;;;10.15;9.27;;;5.80;99.90;;;;;;6047605;23;20212;-75
2022/05/30 04:07:31;;;;;;;10.20;9.20;;;5.80;99.90;;;;;;6055849;23;20549;-75
2022/05/30 04:09:58;;;;;;;9.15;8.35;;;5.90;99.90;;;;;;6057056;23;20221;-75
2022/05/30 04:12:24;;;;;;;8.95;8.25;;;5.90;99.90;;;;;;6046585;23;20216;-75
2022/05/30 04:14:56;;;;;;;9.30;8.52;;;5.90;99.90;;;;;;6049617;23;20231;-75
2022/05/30 04:17:25;;;;;;;10.35;8.63;;;6.00;99.90;;;;;;6047228;23;20245;-75
2022/05/30 04:19:52;;;;;;;8.85;8.05;;;6.10;99.90;;;;;;6049461;23;20304;-75
2022/05/30 04:22:19;;;;;;;8.50;7.80;;;6.20;99.90;;;;;;6052516;23;20197;-75
2022/05/30 04:24:47;;;;;;;9.25;8.32;;;6.30;99.90;;;;;;6053980;23;20200;-74
2022/05/30 04:27:14;;;;;;;8.13;7.50;;;6.40;99.90;;;;;;6045953;23;20210;-74
2022/05/30 04:29:41;;;;;;;8.77;8.07;;;6.40;99.90;;;;;;6047299;23;20193;-75
2022/05/30 04:32:09;;;;;;;9.95;7.93;;;6.50;99.90;;;;;;6047039;23;20193;-75
2022/05/30 04:34:37;;;;;;;7.50;6.90;;;6.60;99.90;;;;;;6048398;23;20225;-74
2022/05/30 04:37:05;;;;;;;10.13;7.45;;;6.70;99.90;;;;;;6053338;23;20217;-74
2022/05/30 04:39:32;;;;;;;8.93;7.45;;;6.80;99.90;;;;;;6052174;23;20267;-75
2022/05/30 04:41:59;;;;;;;6.85;6.35;;;6.90;99.90;;;;;;6056818;23;20208;-75
2022/05/30 04:44:26;;;;;;;7.55;6.57;;;7.00;99.90;;;;;;6037926;23;20178;-74
2022/05/30 04:46:53;;;;;;;7.20;6.60;;;7.10;99.90;;;;;;6047571;23;20244;-75
2022/05/30 04:49:21;;;;;;;7.35;6.70;;;7.20;99.90;;;;;;6055374;23;20177;-74
2022/05/30 04:51:49;;;;;;;6.53;6.03;;;7.30;99.90;;;;;;6047665;23;20185;-74
2022/05/30 04:54:16;;;;;;;7.60;6.95;;;7.30;99.90;;;;;;6051228;23;20568;-74
2022/05/30 04:56:43;;;;;;;7.95;6.25;;;7.40;99.90;;;;;;6050957;23;20235;-74
2022/05/30 04:59:11;;;;;;;6.15;5.65;;;7.50;99.90;;;;;;6053625;23;20275;-74
2022/05/30 05:01:38;;;;;;;7.05;6.40;;;7.60;99.90;;;;;;6039955;23;20201;-80
2022/05/30 05:04:07;;;;;;;6.35;5.75;;;7.70;99.90;;;;;;6045534;23;20215;-75
2022/05/30 05:06:35;;;;;;;5.90;5.40;;;7.80;99.90;;;;;;6038723;23;20201;-76
2022/05/30 05:09:23;;;;;;;5.80;5.30;;;7.80;99.90;;;;;;6036729;23;20219;-74
2022/05/30 05:11:50;;;;;;;6.03;5.53;;;8.00;99.90;;;;;;6055509;23;20193;-75
2022/05/30 05:14:17;;;;;;;7.05;5.40;;;8.10;99.90;;;;;;6041682;23;20221;-74
2022/05/30 05:16:44;;;;;;;5.90;5.40;;;8.10;99.90;;;;;;6053837;23;20205;-74
2022/05/30 05:19:11;;;;;;;6.13;5.63;;;8.30;99.90;;;;;;6054935;23;20267;-74
2022/05/30 05:21:40;;;;;;;6.28;5.72;;;8.50;99.90;;;;;;6050444;23;20190;-74
2022/05/30 05:24:10;;;;;;;6.20;5.75;;;8.50;99.90;;;;;;6047426;23;20226;-74
2022/05/30 05:26:44;;;;;;;6.20;5.70;;;8.60;99.90;;;;;;6046363;23;20228;-74
2022/05/30 05:29:11;;;;;;;6.13;5.50;;;8.60;99.90;;;;;;6050757;23;20201;-73
2022/05/30 05:31:38;;;;;;;7.05;5.15;;;8.60;99.90;;;;;;6050202;23;20319;-73
2022/05/30 05:34:07;;;;;;;6.07;5.25;;;8.60;99.90;;;;;;6056702;23;20232;-74
2022/05/30 05:36:37;;;;;;;5.63;5.18;;;8.70;99.90;;;;;;6048320;23;20245;-73
2022/05/30 05:39:04;;;;;;;5.93;5.43;;;8.60;99.90;;;;;;6042918;23;20189;-74
2022/05/30 05:41:33;;;;;;;6.05;5.60;;;8.60;99.90;;;;;;6044618;23;20190;-74
2022/05/30 05:44:00;;;;;;;6.20;5.80;;;8.60;99.90;;;;;;6047249;23;20277;-74
2022/05/30 05:46:28;;;;;;;6.68;6.00;;;8.60;99.90;;;;;;6055713;23;20221;-74
2022/05/30 05:48:57;;;;;;;5.90;5.35;;;8.50;99.90;;;;;;6047116;23;20194;-74
2022/05/30 05:51:25;;;;;;;6.15;5.65;;;8.50;99.90;;;;;;6044231;23;20193;-75
2022/05/30 05:53:53;;;;;;;6.60;6.10;;;8.60;99.90;;;;;;6055811;23;20192;-74
2022/05/30 05:56:23;;;;;;;6.47;5.93;;;8.60;99.90;;;;;;6053778;23;20209;-74
2022/05/30 05:58:52;;;;;;;6.38;5.85;;;8.80;99.90;;;;;;6051131;23;20599;-74
2022/05/30 06:01:21;;;;;;;6.07;5.68;;;8.80;99.90;;;;;;6045841;23;20763;-74
2022/05/30 06:03:48;;;;;;;5.95;5.45;;;8.90;99.90;;;;;;6050785;23;20249;-74
2022/05/30 06:06:15;;;;;;;6.28;5.78;;;9.00;99.90;;;;;;6050777;23;20222;-74
2022/05/30 06:08:42;;;;;;;6.22;5.72;;;9.10;99.90;;;;;;6046720;23;20217;-74
2022/05/30 06:11:09;;;;;;;6.75;6.22;;;9.20;99.90;;;;;;6051623;23;20198;-74
2022/05/30 06:13:37;;;;;;;5.97;5.43;;;9.20;99.90;;;;;;6052957;23;20183;-74
2022/05/30 06:16:12;;;;;;;6.45;5.88;;;9.30;99.90;;;;;;6054533;23;20227;-74
2022/05/30 06:18:39;;;;;;;5.85;5.45;;;9.40;99.90;;;;;;6049912;23;20656;-74
2022/05/30 06:21:06;;;;;;;5.93;5.53;;;9.50;99.90;;;;;;6039743;23;20601;-74
2022/05/30 06:23:33;;;;;;;6.10;5.50;;;9.60;99.90;;;;;;6048992;23;20262;-74
2022/05/30 06:26:04;;;;;;;5.38;4.97;;;9.80;99.90;;;;;;6052525;23;20403;-74
2022/05/30 06:28:32;;;;;;;5.95;5.15;;;9.90;99.90;;;;;;6045062;23;20191;-74
2022/05/30 06:30:59;;;;;;;6.25;5.75;;;10.10;99.90;;;;;;6054153;23;20203;-74
2022/05/30 06:33:28;;;;;;;5.50;5.10;;;10.20;99.90;;;;;;6053616;23;21277;-74
2022/05/30 06:35:55;;;;;;;5.80;5.20;;;10.30;99.90;;;;;;6051729;23;20733;-74
2022/05/30 06:38:22;;;;;;;5.78;5.28;;;10.40;99.90;;;;;;6053045;23;20247;-74
2022/05/30 06:40:49;;;;;;;6.72;4.72;;;10.50;99.90;;;;;;6059063;23;20270;-74
2022/05/30 06:43:16;;;;;;;5.43;4.90;;;10.50;99.90;;;;;;6043460;23;20192;-75
2022/05/30 06:45:48;;;;;;;5.40;5.00;;;10.60;99.90;;;;;;6045373;23;20265;-74
2022/05/30 06:48:15;;;;;;;5.63;5.13;;;10.80;99.90;;;;;;6049686;23;20192;-74
2022/05/30 06:50:43;;;;;;;5.65;5.00;;;11.00;99.90;;;;;;6053280;23;20193;-74
2022/05/30 06:53:10;;;;;;;6.05;4.60;;;11.30;99.90;;;;;;6041426;23;20193;-74
2022/05/30 06:55:37;;;;;;;4.47;4.18;;;11.50;99.90;;;;;;6057275;23;20224;-80
2022/05/30 06:58:12;;;;;;;4.93;4.40;;;11.70;99.90;;;;;;6047430;23;20217;-71
2022/05/30 07:00:39;;;;;;;5.60;4.93;;;12.00;99.90;;;;;;6037661;23;20226;-75
2022/05/30 07:03:06;;;;;;;4.78;4.38;;;12.10;99.90;;;;;;6058578;23;20185;-75
2022/05/30 07:05:34;;;;;;;4.70;4.30;;;12.20;99.90;;;;;;6034889;23;20181;-75
2022/05/30 07:08:02;;;;;;;4.63;4.22;;;12.10;99.90;;;;;;6056074;23;20210;-74
2022/05/30 07:10:31;;;;;;;4.68;4.22;;;12.20;99.90;;;;;;6041887;23;20180;-75
2022/05/30 07:12:58;;;;;;;4.72;4.20;;;12.30;99.90;;;;;;6049523;23;20188;-75
2022/05/30 07:15:26;;;;;;;6.90;4.78;;;12.30;99.90;;;;;;6050627;23;20208;-75
2022/05/30 07:17:53;;;;;;;4.60;4.20;;;12.50;99.90;;;;;;6044447;23;20233;-75
2022/05/30 07:20:20;;;;;;;4.53;4.07;;;12.70;99.90;;;;;;6050013;23;20303;-75
2022/05/30 07:22:47;;;;;;;4.20;3.80;;;12.90;99.90;;;;;;6057076;23;20280;-75
2022/05/30 07:25:15;;;;;;;5.13;4.05;;;13.10;99.90;;;;;;6045240;23;20263;-76
2022/05/30 07:27:42;;;;;;;4.72;4.15;;;13.40;99.90;;;;;;6047875;23;20227;-76
2022/05/30 07:30:10;;;;;;;3.67;3.33;;;13.70;99.90;;;;;;6044396;23;20182;-76
2022/05/30 07:32:37;;;;;;;5.23;4.30;;;14.20;99.90;;;;;;6058263;23;20502;-76
2022/05/30 07:35:05;;;;;;;3.80;3.47;;;14.70;99.90;;;;;;6051790;23;20475;-75
2022/05/30 07:37:32;;;;;;;3.77;3.47;;;15.40;99.90;;;;;;6040001;23;20460;-76
2022/05/30 07:39:59;;;;;;;3.87;3.57;;;16.30;99.90;;;;;;6054269;23;20436;-76
2022/05/30 07:42:27;;;;;;;4.57;4.17;;;17.10;99.90;;;;;;6048101;23;20471;-76
2022/05/30 07:44:54;;;;;;;3.83;3.53;;;17.60;99.90;;;;;;6043986;23;20769;-76
2022/05/30 07:47:22;;;;;;;3.73;3.43;;;18.10;99.90;;;;;;6044095;23;20505;-76
2022/05/30 07:49:49;;;;;;;3.90;3.60;;;18.40;99.90;;;;;;6038345;23;20444;-75
2022/05/30 07:52:17;;;;;;;4.53;3.70;;;18.60;99.90;;;;;;6057375;23;20445;-75
2022/05/30 07:54:44;;;;;;;3.90;3.50;;;18.70;99.90;;;;;;6046019;23;20953;-76
2022/05/30 07:57:11;;;;;;;4.17;3.77;;;18.70;99.90;;;;;;6054876;23;20486;-75
2022/05/30 07:59:40;;;;;;;3.23;3.03;;;19.00;99.90;;;;;;6046561;23;20447;-76
2022/05/30 08:02:07;;;;;;;4.03;3.70;;;19.40;99.00;;;;;;6054742;23;20473;-84
2022/05/30 08:04:37;;;;;;;3.63;3.30;;;19.60;97.70;;;;;;6045871;23;20774;-76
2022/05/30 08:07:08;;;;;;;4.43;3.47;;;19.80;97.40;;;;;;6044610;23;20452;-76
2022/05/30 08:09:36;;;;;;;3.73;3.30;;;20.10;96.80;;;;;;6045720;23;20442;-79
2022/05/30 08:12:03;;;;;;;3.93;3.27;;;20.80;95.00;;;;;;6055912;23;20780;-76
2022/05/30 08:14:30;;;;;;;3.23;2.90;;;21.00;94.00;;;;;;6051665;23;20471;-77
2022/05/30 08:17:00;;;;;;;4.50;2.73;;;21.60;92.60;;;;;;6056404;23;20451;-76
2022/05/30 08:19:27;;;;;;;3.93;2.80;;;22.20;91.00;;;;;;6049243;23;20451;-76
2022/05/30 08:21:53;;;;;;;3.03;2.83;;;22.40;90.10;;;;;;6047797;23;20439;-77
2022/05/30 08:24:20;;;;;;;3.07;2.70;;;22.90;86.20;;;;;;6049035;23;20459;-76
2022/05/30 08:26:47;;;;;;;4.53;3.13;;;23.40;84.00;;;;;;6057468;23;20530;-76
2022/05/30 08:29:14;;;;;;;3.73;3.43;;;23.30;81.00;;;;;;6056834;23;20439;-76
2022/05/30 08:31:41;;;;;;;3.23;3.00;;;22.40;81.30;;;;;;6039945;23;20437;-76
2022/05/30 08:34:09;;;;;;;2.77;2.43;;;22.20;81.10;;;;;;6046135;23;20436;-76
2022/05/30 08:36:36;;;;;;;3.40;2.83;;;22.30;82.30;;;;;;6053407;23;20479;-76
2022/05/30 08:41:48;;;;;;;3.10;2.80;;;22.80;77.40;;;;;;6046949;23;20437;-76
2022/05/30 08:44:16;;;;;;;3.00;2.70;;;22.90;76.70;;;;;;6046908;23;20522;-76
2022/05/30 08:46:49;;;;;;;3.10;2.30;;;23.30;74.30;;;;;;6046664;23;20465;-76
2022/05/30 08:49:22;;;;;;;4.13;2.63;;;23.40;72.40;;;;;;6050561;23;20452;-77
2022/05/30 08:52:12;;;;;;;2.50;2.30;;;23.70;71.80;;;;;;6047016;23;20440;-76
2022/05/30 08:54:53;;;;;;;2.37;2.17;;;24.20;68.40;;;;;;6045262;23;20512;-76
2022/05/30 08:57:27;;;;;;;2.30;2.20;;;24.50;66.00;;;;;;6045071;23;20470;-76
2022/05/30 09:00:10;;;;;;;3.47;2.43;;;24.00;67.30;;;;;;6049724;23;21028;-76
2022/05/30 09:02:43;;;;;;;2.60;2.20;;;23.80;68.30;;;;;;6051901;23;20429;-77
2022/05/30 09:05:16;;;;;;;2.23;2.03;;;24.00;67.40;;;;;;6046691;23;20443;-77
2022/05/30 09:07:49;;;;;;;2.23;2.03;;;24.50;65.70;;;;;;6043449;23;20445;-76
2022/05/30 09:10:23;;;;;;;5.03;2.07;;;24.50;63.70;;;;;;6048436;23;20542;-77
2022/05/30 09:12:55;;;;;;;3.10;1.93;;;24.70;63.90;;;;;;6040396;23;20436;-77
2022/05/30 09:15:25;;;;;;;1.93;1.60;;;25.20;62.50;;;;;;6045483;23;20977;-77
2022/05/30 09:17:57;;;;;;;2.57;1.90;;;25.40;60.70;;;;;;6034942;23;20436;-77
2022/05/30 09:20:26;;;;;;;3.10;2.13;;;26.00;60.10;;;;;;6043534;23;22028;-77
2022/05/30 09:22:53;;;;;;;2.67;2.30;;;26.90;57.10;;;;;;6050590;23;20967;-77
2022/05/30 09:28:10;;;;;;;2.87;2.00;;;26.30;54.90;;;;;;6038073;23;20559;-77
2022/05/30 09:30:46;;;;;;;3.50;2.00;;;25.30;56.20;;;;;;6049951;23;20444;-77
2022/05/30 09:33:23;;;;;;;3.47;1.90;;;24.50;56.30;;;;;;6047839;23;20492;-76
2022/05/30 09:36:11;;;;;;;2.83;1.87;;;24.50;57.20;;;;;;6045117;23;20841;-77
2022/05/30 09:38:41;;;;;;;2.43;1.50;;;25.00;56.70;;;;;;6054295;23;20485;-77
2022/05/30 09:41:14;;;;;;;5.20;2.03;;;25.30;55.20;;;;;;6057111;23;20511;-77
2022/05/30 09:43:46;;;;;;;3.10;2.67;;;24.00;56.50;;;;;;6044584;23;20950;-77
2022/05/30 09:46:20;;;;;;;2.00;1.80;;;23.20;58.00;;;;;;6053966;23;20475;-77
2022/05/30 09:49:11;;;;;;;2.67;2.30;;;22.70;58.70;;;;;;6057012;23;20946;-77
2022/05/30 09:51:44;;;;;;;2.43;1.43;;;22.90;56.40;;;;;;6046573;23;20438;-77
2022/05/30 09:54:14;;;;;;;2.07;1.77;;;22.90;57.40;;;;;;6060047;23;20450;-77
2022/05/30 09:56:45;;;;;;;1.50;1.33;;;23.30;56.10;;;;;;6041894;23;20479;-77
2022/05/30 09:59:29;;;;;;;3.77;2.20;;;24.20;54.40;;;;;;6054838;23;20435;-77
2022/05/30 10:01:57;;;;;;;2.43;1.67;;;24.40;53.60;;;;;;6047011;23;20568;-76
2022/05/30 10:04:36;;;;;;;2.23;2.00;;;23.30;54.70;;;;;;6059722;23;20763;-77
2022/05/30 10:07:11;;;;;;;3.50;2.00;;;22.00;54.40;;;;;;6050946;23;20541;-77
2022/05/30 10:09:50;;;;;;;2.07;1.50;;;21.50;54.50;;;;;;6055093;23;21129;-77
2022/05/30 10:12:28;;;;;;;1.63;1.53;;;21.10;55.70;;;;;;6045885;23;20440;-77
2022/05/30 10:14:55;;;;;;;3.57;1.60;;;20.90;52.80;;;;;;6057578;23;20848;-77
2022/05/30 10:17:28;;;;;;;2.00;1.70;;;20.90;53.40;;;;;;6047582;23;20499;-77
2022/05/30 10:19:56;;;;;;;1.87;1.77;;;20.70;55.10;;;;;;6052302;23;20447;-77
2022/05/30 10:28:27;;;;;;;2.83;2.23;;;20.40;56.60;;;;;;6048931;23;20957;-77
2022/05/30 10:31:07;;;;;;;2.83;1.57;;;21.50;56.50;;;;;;6058043;23;20802;-77
2022/05/30 10:34:10;;;;;;;2.00;1.60;;;22.50;55.60;;;;;;6047612;23;20463;-77
2022/05/30 10:36:49;;;;;;;2.97;1.70;;;22.90;53.60;;;;;;6018395;23;20565;-77
2022/05/30 10:39:29;;;;;;;2.23;1.73;;;22.70;53.60;;;;;;6046802;23;20784;-78
2022/05/30 10:42:04;;;;;;;2.20;1.63;;;22.40;54.80;;;;;;6055912;23;20441;-77
2022/05/30 10:44:35;;;;;;;2.07;1.90;;;22.20;55.30;;;;;;6052435;23;20443;-77
2022/05/30 10:47:09;;;;;;;2.63;1.60;;;22.30;54.60;;;;;;6058583;23;20468;-79
2022/05/30 10:49:40;;;;;;;1.87;1.70;;;22.30;55.10;;;;;;6058737;23;20530;-77
2022/05/30 10:52:14;;;;;;;2.17;1.70;;;22.10;54.00;;;;;;6054627;23;20861;-77
2022/05/30 10:54:46;;;;;;;2.60;1.53;;;21.80;54.90;;;;;;6056353;23;20465;-77
2022/05/30 10:57:20;;;;;;;2.53;1.30;;;21.80;54.50;;;;;;6055925;23;20479;-77
2022/05/30 10:59:53;;;;;;;2.20;1.23;;;22.10;54.80;;;;;;6050025;23;20517;-77
2022/05/30 11:02:28;;;;;;;1.53;1.43;;;23.20;55.00;;;;;;6049793;23;20927;-78
2022/05/30 11:05:00;;;;;;;1.60;1.10;;;24.50;53.30;;;;;;6056480;23;20794;-78
2022/05/30 11:07:48;;;;;;;1.97;1.10;;;25.70;51.30;;;;;;6051925;23;20467;-77
2022/05/30 11:10:38;;;;;;;3.50;1.30;;;26.60;49.30;;;;;;6052721;23;20435;-78
2022/05/30 11:13:13;;;;;;;1.77;1.27;;;27.10;47.00;;;;;;6059133;23;20462;-77
2022/05/30 11:15:45;;;;;;;1.53;1.33;;;27.20;46.80;;;;;;6053993;23;20978;-77
2022/05/30 11:18:23;;;;;;;1.33;1.03;;;27.70;45.50;;;;;;6051807;23;20427;-78
2022/05/30 11:21:00;;;;;;;1.33;1.23;;;28.10;43.20;;;;;;6059099;23;20842;-77
2022/05/30 11:23:27;;;;;;;1.57;1.10;;;28.40;43.00;;;;;;6046468;23;20509;-77
2022/05/30 11:26:15;;;;;;;1.60;1.30;;;28.40;42.60;;;;;;6056388;23;20463;-77
2022/05/30 11:29:08;;;;;;;2.23;1.53;;;28.80;42.30;;;;;;6058599;23;21095;-77
2022/05/30 11:31:42;;;;;;;1.43;1.20;;;29.00;41.10;;;;;;6038462;23;20435;-77
2022/05/30 11:34:33;;;;;;;1.60;1.40;;;28.50;41.50;;;;;;6052549;23;20439;-77
2022/05/30 11:37:29;;;;;;;2.77;1.57;;;28.50;41.70;;;;;;6058301;23;21339;-77
2022/05/30 11:40:11;;;;;;;3.00;1.80;;;28.10;43.80;;;;;;6050791;23;21340;-77
2022/05/30 11:43:02;;;;;;;1.80;1.60;;;27.90;44.90;;;;;;6058716;23;20442;-78
2022/05/30 11:45:41;;;;;;;2.57;1.50;;;27.80;44.40;;;;;;6053920;23;20468;-77
2022/05/30 11:48:13;;;;;;;1.73;1.40;;;27.60;45.60;;;;;;6060329;23;20446;-80
2022/05/30 11:50:52;;;;;;;2.40;1.40;;;28.00;45.50;;;;;;6062652;23;20439;-77
2022/05/30 11:53:34;;;;;;;3.73;1.40;;;28.60;44.90;;;;;;6047514;23;20527;-86
2022/05/30 11:56:10;;;;;;;1.90;1.70;;;29.10;43.80;;;;;;6047009;23;20471;-77
2022/05/30 11:59:03;;;;;;;1.70;1.60;;;28.90;42.40;;;;;;6062970;23;20551;-78
2022/05/30 12:01:32;;;;;;;2.63;1.30;;;27.90;42.00;;;;;;6042645;23;20448;-77
2022/05/30 12:04:33;;;;;;;1.90;1.80;;;27.20;42.90;;;;;;6052550;23;20530;-77
2022/05/30 12:07:36;;;;;;;1.67;1.43;;;26.40;42.80;;;;;;6061357;23;20461;-77
2022/05/30 12:10:19;;;;;;;2.30;1.40;;;25.20;43.70;;;;;;6048257;23;20875;-77
2022/05/30 12:13:05;;;;;;;1.63;1.47;;;24.50;45.80;;;;;;6054370;23;20483;-77
2022/05/30 12:16:04;;;;;;;1.90;1.40;;;23.90;46.30;;;;;;6056715;23;20463;-77
2022/05/30 12:24:44;;;;;;;1.93;1.60;;;22.70;47.30;;;;;;5977439;23;20490;-76
2022/05/30 12:27:33;;;;;;;1.87;1.47;;;23.00;47.50;;;;;;6049382;23;20481;-77
2022/05/30 12:30:02;;;;;;;1.87;1.40;;;23.10;46.70;;;;;;6049379;23;20433;-77
2022/05/30 12:32:40;;;;;;;2.80;1.57;;;23.40;47.50;;;;;;6048323;23;20451;-77
2022/05/30 12:35:26;;;;;;;2.57;1.80;;;23.40;45.80;;;;;;6050658;23;20541;-77
2022/05/30 12:38:09;;;;;;;1.73;1.60;;;23.20;45.50;;;;;;6052735;23;20546;-77
2022/05/30 12:40:38;;;;;;;4.87;1.87;;;23.10;47.00;;;;;;6058124;23;20541;-77
2022/05/30 12:43:15;;;;;;;1.80;1.70;;;22.90;47.30;;;;;;6052149;23;20443;-77
2022/05/30 12:45:46;;;;;;;1.80;1.60;;;22.50;46.80;;;;;;6046126;23;20534;-78
2022/05/30 12:48:23;;;;;;;1.70;1.60;;;22.50;45.90;;;;;;6057112;23;20809;-78
2022/05/30 12:51:15;;;;;;;3.77;1.70;;;23.00;46.70;;;;;;6055024;23;20459;-77
2022/05/30 12:54:31;;;;;;;1.77;1.60;;;23.80;46.20;;;;;;6053436;23;20538;-78
2022/05/30 12:57:06;;;;;;;1.83;1.53;;;24.80;46.00;;;;;;6044669;23;20479;-77
2022/05/30 12:59:35;;;;;;;1.70;1.50;;;25.70;44.70;;;;;;6045559;23;20536;-77
2022/05/30 13:02:07;;;;;;;2.10;1.40;;;26.10;41.10;;;;;;6047888;23;20436;-77
2022/05/30 13:04:37;;;;;;;2.00;1.60;;;26.40;41.80;;;;;;6045111;23;20498;-77
2022/05/30 13:07:15;;;;;;;2.33;1.20;;;27.40;40.40;;;;;;6057462;23;20958;-79
2022/05/30 13:09:44;;;;;;;1.80;1.30;;;29.50;39.80;;;;;;6047888;23;20443;-77
2022/05/30 13:15:31;;;;;;;1.23;1.13;;;33.70;36.90;;;;;;6055532;23;20505;-78
2022/05/30 13:18:03;;;;;;;2.60;1.70;;;36.80;33.60;;;;;;6032728;23;20523;-78
2022/05/30 13:20:42;;;;;;;1.40;1.30;;;39.20;32.00;;;;;;6045718;23;21008;-78
2022/05/30 13:23:09;;;;;;;1.47;1.20;;;38.80;29.50;;;;;;6059530;23;20439;-78
2022/05/30 13:25:40;;;;;;;1.83;1.53;;;37.00;30.00;;;;;;6056982;23;20486;-78
2022/05/30 13:28:09;;;;;;;2.40;1.60;;;34.80;30.60;;;;;;6061637;23;20451;-78
2022/05/30 13:30:38;;;;;;;2.60;1.60;;;34.40;31.50;;;;;;6044061;23;20950;-78
2022/05/30 13:33:20;;;;;;;2.50;1.37;;;35.40;30.90;;;;;;6050367;23;20452;-79
2022/05/30 13:35:52;;;;;;;1.80;1.37;;;35.40;30.10;;;;;;6047856;23;20452;-78
2022/05/30 13:38:28;;;;;;;1.63;1.27;;;34.00;30.00;;;;;;6057556;23;20479;-78
2022/05/30 13:40:55;;;;;;;1.80;1.50;;;34.20;31.40;;;;;;6047242;23;20438;-77
2022/05/30 13:43:32;;;;;;;1.53;1.43;;;35.10;30.00;;;;;;6055979;23;20443;-78